Detall de PIREP

Printer-friendly versionPDF version

[2012/05/26 10:07:00]
Flight IATA:CT3232
Pilot Number:042
Company ICAO:CAT
Aircraft Type:MD11/E
PAX:200
Aircraft Registration:PAX
Departing Airport: LEPA
Destination Airport: LEMD
Alternate Airport:LEMG
Online: VATSIM
Route:EPAMA UN733 PRADO
Flight Level:F350
No Slew and time accel
No pause
Crash detect
Detect pilot in Cockpit between each 30 and 45 minutes
10:07 Zero fuel Weight: 430000 Lbs, Fuel Weight: 17405 Lbs
10:07 VATSIM:LEPA 260930Z 23008KT 200V260 CAVOK 24/10 Q1016 NOSIG
10:07 VATSIM:LEMD 260930Z 24007KT 200V270 CAVOK 20/00 Q1018 NOSIG
10:07 VOICE CATALONIAN
10:14 Parking Brakes off
10:22 Take-off
10:22 Take off Weight: 474824 Lbs
10:22 Wind: 242º @ 008 Knots Heading: 238º
10:22 POS N39º 33´ 12´´ E002º 43´ 26´´
10:22 Gear Up: 200 Knots
10:22 Flaps:4 at 200 Knots
10:22 Flaps:3 at 168 Knots
10:22 Flaps:4 at 167 Knots
10:22 Flaps:3 at 166 Knots
10:22 Flaps:2 at 165 Knots
10:22 Flaps:1 at 165 Knots
10:23 Flaps:0 at 222 Knots
10:37 Wind:191º@015 Knots Heading: 263º Ground Speed: 483 Knots Altitude 33188 ft
10:38 TOC
10:38 Fuel Weight: 34811 Lb
10:47 TOD
10:47 Fuel Weight: 32336 Lb
10:52 Wind:223º@014 Knots Heading: 297º Ground Speed: 438 Knots Altitude 24977 ft
11:02 Flaps:1 at 219 Knots
11:03 Flaps:2 at 217 Knots
11:03 Flaps:3 at 217 Knots
11:04 Flaps:4 at 188 Knots
11:04 Flaps:3 at 188 Knots
11:04 Flaps:4 at 188 Knots
11:04 Flaps:5 at 188 Knots
11:04 Flaps:6 at 188 Knots
11:07 Wind:212º@021 Knots Heading: 295º Ground Speed: 227 Knots Altitude 12772 ft
11:15 Flaps:7 at 175 Knots
11:16 Gear Down: 172 Knots
11:16 Flaps:8 at 169 Knots
11:20 TouchDown:Rate -133 ft/min Speed: 154 Knots
11:21 VATSIM:LEMD 261100Z 22009G25KT 150V270 CAVOK 22/M08 Q1018 NOSIG
11:21 Land
11:21 Wind:256º@009 Knots
11:21 Heading: 180º
11:21 Flight Duration: 00:59
11:21 Landing Weight: 453115 Lbs
11:21 POS N40º 30´ 40´´ W003º 33´ 32´´
11:25 Parking brakes on
11:25 Block to Block Duration: 01:11
11:25 Final Fuel: 22627 Lbls
11:25 Spent Fuel: 878702136 Lbls
11:25 Flight Length: 343 NM
11:25 TOD Land Length: 163 NM

Exportar CSV

Powered by Drupal - Modified by Danger4k